sensor_id;sensor_type;location;lat;lon;timestamp;P1;durP1;ratioP1;P2;durP2;ratioP2
11396;SDS011;5754;43.726;7.416;2022-09-25T00:00:26;1.63;;;1.23;;
11396;SDS011;5754;43.726;7.416;2022-09-25T00:03:01;4.37;;;1.40;;
11396;SDS011;5754;43.726;7.416;2022-09-25T00:05:37;2.37;;;1.00;;
11396;SDS011;5754;43.726;7.416;2022-09-25T00:08:13;4.10;;;1.50;;
11396;SDS011;5754;43.726;7.416;2022-09-25T00:10:50;3.60;;;1.30;;
11396;SDS011;5754;43.726;7.416;2022-09-25T00:13:25;3.10;;;1.50;;
11396;SDS011;5754;43.726;7.416;2022-09-25T00:15:59;2.90;;;1.70;;
11396;SDS011;5754;43.726;7.416;2022-09-25T00:18:35;4.97;;;1.90;;
11396;SDS011;5754;43.726;7.416;2022-09-25T00:21:31;6.07;;;1.77;;
11396;SDS011;5754;43.726;7.416;2022-09-25T00:24:07;2.53;;;1.33;;
11396;SDS011;5754;43.726;7.416;2022-09-25T00:26:42;5.53;;;1.40;;
11396;SDS011;5754;43.726;7.416;2022-09-25T00:29:17;3.77;;;1.50;;
11396;SDS011;5754;43.726;7.416;2022-09-25T00:31:53;2.97;;;1.33;;
11396;SDS011;5754;43.726;7.416;2022-09-25T00:34:28;2.57;;;1.40;;
11396;SDS011;5754;43.726;7.416;2022-09-25T00:37:03;4.87;;;1.30;;
11396;SDS011;5754;43.726;7.416;2022-09-25T00:39:37;2.83;;;1.50;;
11396;SDS011;5754;43.726;7.416;2022-09-25T00:42:13;2.60;;;1.30;;
11396;SDS011;5754;43.726;7.416;2022-09-25T00:44:57;3.83;;;1.40;;
11396;SDS011;5754;43.726;7.416;2022-09-25T00:47:41;1.53;;;1.37;;
11396;SDS011;5754;43.726;7.416;2022-09-25T00:50:21;3.70;;;1.30;;
11396;SDS011;5754;43.726;7.416;2022-09-25T00:52:58;3.33;;;1.37;;
11396;SDS011;5754;43.726;7.416;2022-09-25T00:55:35;1.20;;;0.90;;
11396;SDS011;5754;43.726;7.416;2022-09-25T00:58:13;1.23;;;0.90;;
11396;SDS011;5754;43.726;7.416;2022-09-25T01:00:49;2.73;;;1.10;;
11396;SDS011;5754;43.726;7.416;2022-09-25T01:03:24;2.50;;;1.00;;
11396;SDS011;5754;43.726;7.416;2022-09-25T01:06:00;1.60;;;1.10;;
11396;SDS011;5754;43.726;7.416;2022-09-25T01:08:35;1.10;;;1.00;;
11396;SDS011;5754;43.726;7.416;2022-09-25T01:11:10;1.30;;;0.93;;
11396;SDS011;5754;43.726;7.416;2022-09-25T01:13:47;1.77;;;1.00;;
11396;SDS011;5754;43.726;7.416;2022-09-25T01:16:25;2.20;;;1.03;;
11396;SDS011;5754;43.726;7.416;2022-09-25T01:19:11;1.10;;;1.00;;
11396;SDS011;5754;43.726;7.416;2022-09-25T01:27:28;1.33;;;1.00;;
11396;SDS011;5754;43.726;7.416;2022-09-25T01:30:05;1.90;;;1.00;;
11396;SDS011;5754;43.726;7.416;2022-09-25T01:33:05;2.77;;;1.07;;
11396;SDS011;5754;43.726;7.416;2022-09-25T01:36:28;2.17;;;1.10;;
11396;SDS011;5754;43.726;7.416;2022-09-25T01:42:02;3.30;;;1.20;;
11396;SDS011;5754;43.726;7.416;2022-09-25T01:44:42;1.87;;;1.27;;
11396;SDS011;5754;43.726;7.416;2022-09-25T01:47:19;3.27;;;1.17;;
11396;SDS011;5754;43.726;7.416;2022-09-25T01:50:00;2.57;;;1.30;;
11396;SDS011;5754;43.726;7.416;2022-09-25T01:52:39;1.37;;;1.20;;
11396;SDS011;5754;43.726;7.416;2022-09-25T02:03:07;1.97;;;1.30;;
11396;SDS011;5754;43.726;7.416;2022-09-25T02:05:58;1.30;;;1.20;;
11396;SDS011;5754;43.726;7.416;2022-09-25T02:08:35;1.87;;;1.20;;
11396;SDS011;5754;43.726;7.416;2022-09-25T02:11:12;1.47;;;1.10;;
11396;SDS011;5754;43.726;7.416;2022-09-25T02:13:49;1.50;;;1.37;;
11396;SDS011;5754;43.726;7.416;2022-09-25T02:16:31;1.83;;;1.40;;
11396;SDS011;5754;43.726;7.416;2022-09-25T02:19:10;3.30;;;1.57;;
11396;SDS011;5754;43.726;7.416;2022-09-25T02:22:06;3.07;;;1.13;;
11396;SDS011;5754;43.726;7.416;2022-09-25T02:24:44;3.23;;;1.20;;
11396;SDS011;5754;43.726;7.416;2022-09-25T02:27:20;2.40;;;1.40;;
11396;SDS011;5754;43.726;7.416;2022-09-25T02:29:55;1.67;;;1.57;;
11396;SDS011;5754;43.726;7.416;2022-09-25T02:32:34;1.77;;;1.30;;
11396;SDS011;5754;43.726;7.416;2022-09-25T02:35:08;1.70;;;1.53;;
11396;SDS011;5754;43.726;7.416;2022-09-25T02:37:43;3.70;;;1.67;;
11396;SDS011;5754;43.726;7.416;2022-09-25T02:40:18;2.80;;;1.47;;
11396;SDS011;5754;43.726;7.416;2022-09-25T02:43:02;1.77;;;1.43;;
11396;SDS011;5754;43.726;7.416;2022-09-25T02:45:53;5.47;;;1.60;;
11396;SDS011;5754;43.726;7.416;2022-09-25T02:48:43;1.53;;;1.40;;
11396;SDS011;5754;43.726;7.416;2022-09-25T02:51:34;2.47;;;1.33;;
11396;SDS011;5754;43.726;7.416;2022-09-25T02:54:19;2.33;;;1.80;;
11396;SDS011;5754;43.726;7.416;2022-09-25T02:57:02;1.77;;;1.40;;
11396;SDS011;5754;43.726;7.416;2022-09-25T02:59:44;3.63;;;1.50;;
11396;SDS011;5754;43.726;7.416;2022-09-25T03:02:20;1.63;;;1.23;;
11396;SDS011;5754;43.726;7.416;2022-09-25T03:04:56;1.97;;;1.77;;
11396;SDS011;5754;43.726;7.416;2022-09-25T03:07:32;1.73;;;1.50;;
11396;SDS011;5754;43.726;7.416;2022-09-25T03:11:13;1.80;;;1.50;;
11396;SDS011;5754;43.726;7.416;2022-09-25T03:14:01;3.93;;;1.50;;
11396;SDS011;5754;43.726;7.416;2022-09-25T03:16:46;2.60;;;1.30;;
11396;SDS011;5754;43.726;7.416;2022-09-25T03:19:20;2.93;;;1.40;;
11396;SDS011;5754;43.726;7.416;2022-09-25T03:21:59;3.03;;;1.63;;
11396;SDS011;5754;43.726;7.416;2022-09-25T03:24:35;2.87;;;1.73;;
11396;SDS011;5754;43.726;7.416;2022-09-25T03:27:10;2.50;;;1.50;;
11396;SDS011;5754;43.726;7.416;2022-09-25T03:29:45;3.87;;;1.50;;
11396;SDS011;5754;43.726;7.416;2022-09-25T03:32:21;2.70;;;1.43;;
11396;SDS011;5754;43.726;7.416;2022-09-25T03:34:55;1.47;;;1.33;;
11396;SDS011;5754;43.726;7.416;2022-09-25T03:37:30;1.50;;;1.40;;
11396;SDS011;5754;43.726;7.416;2022-09-25T03:40:05;1.90;;;1.20;;
11396;SDS011;5754;43.726;7.416;2022-09-25T03:42:40;2.37;;;1.50;;
11396;SDS011;5754;43.726;7.416;2022-09-25T03:45:15;2.00;;;1.30;;
11396;SDS011;5754;43.726;7.416;2022-09-25T03:47:50;5.63;;;1.40;;
11396;SDS011;5754;43.726;7.416;2022-09-25T03:50:25;1.93;;;1.30;;
11396;SDS011;5754;43.726;7.416;2022-09-25T03:53:00;3.23;;;1.47;;
11396;SDS011;5754;43.726;7.416;2022-09-25T03:55:36;1.77;;;1.30;;
11396;SDS011;5754;43.726;7.416;2022-09-25T03:58:20;3.20;;;1.43;;
11396;SDS011;5754;43.726;7.416;2022-09-25T04:00:55;2.17;;;1.47;;
11396;SDS011;5754;43.726;7.416;2022-09-25T04:03:30;4.47;;;1.60;;
11396;SDS011;5754;43.726;7.416;2022-09-25T04:06:05;2.60;;;1.67;;
11396;SDS011;5754;43.726;7.416;2022-09-25T04:08:40;1.30;;;1.20;;
11396;SDS011;5754;43.726;7.416;2022-09-25T04:11:15;2.20;;;1.57;;
11396;SDS011;5754;43.726;7.416;2022-09-25T04:13:50;3.33;;;2.50;;
11396;SDS011;5754;43.726;7.416;2022-09-25T04:16:28;2.60;;;1.60;;
11396;SDS011;5754;43.726;7.416;2022-09-25T04:19:03;2.80;;;1.80;;
11396;SDS011;5754;43.726;7.416;2022-09-25T04:21:39;2.90;;;1.60;;
11396;SDS011;5754;43.726;7.416;2022-09-25T04:24:14;1.30;;;1.07;;
11396;SDS011;5754;43.726;7.416;2022-09-25T04:27:06;2.70;;;1.50;;
11396;SDS011;5754;43.726;7.416;2022-09-25T04:29:50;3.17;;;1.40;;
11396;SDS011;5754;43.726;7.416;2022-09-25T04:32:25;2.80;;;1.53;;
11396;SDS011;5754;43.726;7.416;2022-09-25T04:35:19;3.70;;;1.40;;
11396;SDS011;5754;43.726;7.416;2022-09-25T04:37:54;2.17;;;1.20;;
11396;SDS011;5754;43.726;7.416;2022-09-25T04:40:30;4.13;;;1.77;;
11396;SDS011;5754;43.726;7.416;2022-09-25T04:43:08;2.27;;;1.37;;
11396;SDS011;5754;43.726;7.416;2022-09-25T04:45:42;3.97;;;1.50;;
11396;SDS011;5754;43.726;7.416;2022-09-25T04:48:19;2.10;;;1.23;;
11396;SDS011;5754;43.726;7.416;2022-09-25T04:50:54;5.47;;;1.47;;
11396;SDS011;5754;43.726;7.416;2022-09-25T04:53:29;1.53;;;1.43;;
11396;SDS011;5754;43.726;7.416;2022-09-25T04:56:05;2.53;;;1.20;;
11396;SDS011;5754;43.726;7.416;2022-09-25T04:58:45;3.27;;;1.23;;
11396;SDS011;5754;43.726;7.416;2022-09-25T05:01:20;2.63;;;1.53;;
11396;SDS011;5754;43.726;7.416;2022-09-25T05:03:55;2.60;;;1.40;;
11396;SDS011;5754;43.726;7.416;2022-09-25T05:06:30;3.23;;;1.40;;
11396;SDS011;5754;43.726;7.416;2022-09-25T05:09:04;2.70;;;1.20;;
11396;SDS011;5754;43.726;7.416;2022-09-25T05:11:39;3.87;;;1.27;;
11396;SDS011;5754;43.726;7.416;2022-09-25T05:14:16;2.80;;;1.57;;
11396;SDS011;5754;43.726;7.416;2022-09-25T05:16:51;3.03;;;1.20;;
11396;SDS011;5754;43.726;7.416;2022-09-25T05:19:25;1.93;;;1.13;;
11396;SDS011;5754;43.726;7.416;2022-09-25T05:22:00;1.20;;;1.10;;
11396;SDS011;5754;43.726;7.416;2022-09-25T05:24:34;3.40;;;1.17;;
11396;SDS011;5754;43.726;7.416;2022-09-25T05:27:11;3.23;;;1.20;;
11396;SDS011;5754;43.726;7.416;2022-09-25T05:29:49;2.87;;;1.40;;
11396;SDS011;5754;43.726;7.416;2022-09-25T05:32:24;3.07;;;1.10;;
11396;SDS011;5754;43.726;7.416;2022-09-25T05:34:58;1.90;;;1.30;;
11396;SDS011;5754;43.726;7.416;2022-09-25T05:40:18;2.53;;;1.17;;
11396;SDS011;5754;43.726;7.416;2022-09-25T05:42:56;1.27;;;1.03;;
11396;SDS011;5754;43.726;7.416;2022-09-25T05:45:30;2.53;;;1.07;;
11396;SDS011;5754;43.726;7.416;2022-09-25T05:48:07;2.30;;;1.10;;
11396;SDS011;5754;43.726;7.416;2022-09-25T05:50:42;2.47;;;1.10;;
11396;SDS011;5754;43.726;7.416;2022-09-25T05:53:16;1.90;;;1.30;;
11396;SDS011;5754;43.726;7.416;2022-09-25T05:55:51;1.33;;;0.90;;
11396;SDS011;5754;43.726;7.416;2022-09-25T05:58:29;3.40;;;1.37;;
11396;SDS011;5754;43.726;7.416;2022-09-25T06:01:03;2.00;;;1.00;;
11396;SDS011;5754;43.726;7.416;2022-09-25T06:03:38;1.23;;;1.07;;
11396;SDS011;5754;43.726;7.416;2022-09-25T06:06:13;2.93;;;1.13;;
11396;SDS011;5754;43.726;7.416;2022-09-25T06:08:47;1.97;;;1.17;;
11396;SDS011;5754;43.726;7.416;2022-09-25T06:11:22;1.07;;;0.90;;
11396;SDS011;5754;43.726;7.416;2022-09-25T06:13:56;2.17;;;1.10;;
11396;SDS011;5754;43.726;7.416;2022-09-25T06:16:31;3.20;;;1.00;;
11396;SDS011;5754;43.726;7.416;2022-09-25T06:19:05;2.55;;;1.15;;
11396;SDS011;5754;43.726;7.416;2022-09-25T06:21:40;3.60;;;1.65;;
11396;SDS011;5754;43.726;7.416;2022-09-25T06:24:15;1.90;;;1.20;;
11396;SDS011;5754;43.726;7.416;2022-09-25T06:26:50;3.08;;;1.20;;
11396;SDS011;5754;43.726;7.416;2022-09-25T06:29:24;3.22;;;1.12;;
11396;SDS011;5754;43.726;7.416;2022-09-25T06:31:59;3.60;;;1.12;;
11396;SDS011;5754;43.726;7.416;2022-09-25T06:34:33;3.83;;;1.20;;
11396;SDS011;5754;43.726;7.416;2022-09-25T06:37:08;5.35;;;1.45;;
11396;SDS011;5754;43.726;7.416;2022-09-25T06:39:43;4.85;;;1.65;;
11396;SDS011;5754;43.726;7.416;2022-09-25T06:42:18;5.87;;;1.58;;
11396;SDS011;5754;43.726;7.416;2022-09-25T06:44:52;5.72;;;1.62;;
11396;SDS011;5754;43.726;7.416;2022-09-25T06:47:27;4.62;;;1.67;;
11396;SDS011;5754;43.726;7.416;2022-09-25T06:50:02;2.95;;;1.10;;
11396;SDS011;5754;43.726;7.416;2022-09-25T06:52:41;3.33;;;1.50;;
11396;SDS011;5754;43.726;7.416;2022-09-25T06:55:18;2.42;;;1.00;;
11396;SDS011;5754;43.726;7.416;2022-09-25T06:57:53;2.72;;;1.02;;
11396;SDS011;5754;43.726;7.416;2022-09-25T07:00:28;1.55;;;1.00;;
11396;SDS011;5754;43.726;7.416;2022-09-25T07:03:02;1.55;;;1.00;;
11396;SDS011;5754;43.726;7.416;2022-09-25T07:05:58;3.55;;;1.10;;
11396;SDS011;5754;43.726;7.416;2022-09-25T07:08:33;1.33;;;1.00;;
11396;SDS011;5754;43.726;7.416;2022-09-25T07:11:09;4.28;;;1.62;;
11396;SDS011;5754;43.726;7.416;2022-09-25T07:13:44;3.65;;;1.20;;
11396;SDS011;5754;43.726;7.416;2022-09-25T07:16:20;2.22;;;1.10;;
11396;SDS011;5754;43.726;7.416;2022-09-25T07:18:57;2.35;;;1.05;;
11396;SDS011;5754;43.726;7.416;2022-09-25T07:21:36;7.15;;;1.62;;
11396;SDS011;5754;43.726;7.416;2022-09-25T07:24:10;3.87;;;1.70;;
11396;SDS011;5754;43.726;7.416;2022-09-25T07:26:45;4.60;;;1.55;;
11396;SDS011;5754;43.726;7.416;2022-09-25T07:29:21;3.15;;;1.40;;
11396;SDS011;5754;43.726;7.416;2022-09-25T07:31:56;4.20;;;1.10;;
11396;SDS011;5754;43.726;7.416;2022-09-25T07:34:35;8.20;;;1.47;;
11396;SDS011;5754;43.726;7.416;2022-09-25T07:37:10;2.07;;;1.10;;
11396;SDS011;5754;43.726;7.416;2022-09-25T07:39:44;1.80;;;1.17;;
11396;SDS011;5754;43.726;7.416;2022-09-25T07:42:19;1.83;;;1.10;;
11396;SDS011;5754;43.726;7.416;2022-09-25T07:44:56;2.27;;;1.37;;
11396;SDS011;5754;43.726;7.416;2022-09-25T07:47:30;1.53;;;0.93;;
11396;SDS011;5754;43.726;7.416;2022-09-25T07:50:06;1.90;;;1.10;;
11396;SDS011;5754;43.726;7.416;2022-09-25T07:52:42;1.17;;;0.90;;
11396;SDS011;5754;43.726;7.416;2022-09-25T07:55:16;2.27;;;1.10;;
11396;SDS011;5754;43.726;7.416;2022-09-25T07:57:52;1.80;;;1.03;;
11396;SDS011;5754;43.726;7.416;2022-09-25T08:00:29;4.47;;;1.00;;
11396;SDS011;5754;43.726;7.416;2022-09-25T08:03:04;2.70;;;1.17;;
11396;SDS011;5754;43.726;7.416;2022-09-25T08:05:39;1.30;;;1.17;;
11396;SDS011;5754;43.726;7.416;2022-09-25T08:08:13;2.60;;;1.20;;
11396;SDS011;5754;43.726;7.416;2022-09-25T08:10:50;2.53;;;1.20;;
11396;SDS011;5754;43.726;7.416;2022-09-25T08:13:30;1.20;;;0.90;;
11396;SDS011;5754;43.726;7.416;2022-09-25T08:16:06;1.27;;;1.00;;
11396;SDS011;5754;43.726;7.416;2022-09-25T08:18:47;3.63;;;1.20;;
11396;SDS011;5754;43.726;7.416;2022-09-25T08:21:23;1.93;;;1.07;;
11396;SDS011;5754;43.726;7.416;2022-09-25T08:23:58;4.77;;;1.10;;
11396;SDS011;5754;43.726;7.416;2022-09-25T08:26:33;3.37;;;0.97;;
11396;SDS011;5754;43.726;7.416;2022-09-25T08:29:11;2.53;;;1.20;;
11396;SDS011;5754;43.726;7.416;2022-09-25T08:31:45;1.83;;;1.00;;
11396;SDS011;5754;43.726;7.416;2022-09-25T08:34:20;1.70;;;1.07;;
11396;SDS011;5754;43.726;7.416;2022-09-25T08:37:12;3.47;;;0.90;;
11396;SDS011;5754;43.726;7.416;2022-09-25T08:39:48;1.30;;;1.00;;
11396;SDS011;5754;43.726;7.416;2022-09-25T08:42:30;1.13;;;0.90;;
11396;SDS011;5754;43.726;7.416;2022-09-25T08:45:10;2.23;;;1.00;;
11396;SDS011;5754;43.726;7.416;2022-09-25T08:48:08;2.63;;;0.90;;
11396;SDS011;5754;43.726;7.416;2022-09-25T08:51:05;3.23;;;1.00;;
11396;SDS011;5754;43.726;7.416;2022-09-25T08:53:41;3.03;;;0.97;;
11396;SDS011;5754;43.726;7.416;2022-09-25T08:56:18;4.82;;;1.20;;
11396;SDS011;5754;43.726;7.416;2022-09-25T08:58:54;3.13;;;1.33;;
11396;SDS011;5754;43.726;7.416;2022-09-25T09:01:43;3.47;;;1.40;;
11396;SDS011;5754;43.726;7.416;2022-09-25T09:04:29;4.70;;;1.50;;
11396;SDS011;5754;43.726;7.416;2022-09-25T09:07:05;2.37;;;1.23;;
11396;SDS011;5754;43.726;7.416;2022-09-25T09:10:15;2.27;;;1.33;;
11396;SDS011;5754;43.726;7.416;2022-09-25T09:13:04;3.00;;;1.87;;
11396;SDS011;5754;43.726;7.416;2022-09-25T09:15:42;3.62;;;1.60;;
11396;SDS011;5754;43.726;7.416;2022-09-25T09:18:26;1.20;;;1.10;;
11396;SDS011;5754;43.726;7.416;2022-09-25T09:21:17;2.33;;;1.40;;
11396;SDS011;5754;43.726;7.416;2022-09-25T09:24:05;3.15;;;1.40;;
11396;SDS011;5754;43.726;7.416;2022-09-25T09:26:54;7.03;;;1.40;;
11396;SDS011;5754;43.726;7.416;2022-09-25T09:29:43;2.10;;;1.00;;
11396;SDS011;5754;43.726;7.416;2022-09-25T09:36:34;5.37;;;1.10;;
11396;SDS011;5754;43.726;7.416;2022-09-25T09:39:23;4.43;;;1.20;;
11396;SDS011;5754;43.726;7.416;2022-09-25T09:47:24;2.17;;;1.17;;
11396;SDS011;5754;43.726;7.416;2022-09-25T09:53:00;2.90;;;1.03;;
11396;SDS011;5754;43.726;7.416;2022-09-25T09:55:39;2.05;;;1.10;;
11396;SDS011;5754;43.726;7.416;2022-09-25T09:58:29;3.25;;;1.80;;
11396;SDS011;5754;43.726;7.416;2022-09-25T10:01:05;6.25;;;1.80;;
11396;SDS011;5754;43.726;7.416;2022-09-25T10:03:50;5.80;;;1.83;;
11396;SDS011;5754;43.726;7.416;2022-09-25T10:06:27;2.40;;;1.30;;
11396;SDS011;5754;43.726;7.416;2022-09-25T10:09:04;6.43;;;1.37;;
11396;SDS011;5754;43.726;7.416;2022-09-25T10:11:40;4.95;;;1.30;;
11396;SDS011;5754;43.726;7.416;2022-09-25T10:14:17;1.87;;;1.10;;
11396;SDS011;5754;43.726;7.416;2022-09-25T10:16:53;3.37;;;1.10;;
11396;SDS011;5754;43.726;7.416;2022-09-25T10:19:47;2.67;;;1.00;;
11396;SDS011;5754;43.726;7.416;2022-09-25T10:22:27;3.05;;;0.90;;
11396;SDS011;5754;43.726;7.416;2022-09-25T10:25:08;1.42;;;0.93;;
11396;SDS011;5754;43.726;7.416;2022-09-25T10:27:43;1.70;;;1.10;;
11396;SDS011;5754;43.726;7.416;2022-09-25T10:30:20;2.53;;;1.30;;
11396;SDS011;5754;43.726;7.416;2022-09-25T10:32:55;5.65;;;1.30;;
11396;SDS011;5754;43.726;7.416;2022-09-25T10:35:41;3.50;;;1.40;;
11396;SDS011;5754;43.726;7.416;2022-09-25T10:42:45;3.90;;;1.23;;
11396;SDS011;5754;43.726;7.416;2022-09-25T10:45:33;4.97;;;1.20;;
11396;SDS011;5754;43.726;7.416;2022-09-25T10:48:27;7.95;;;2.45;;
11396;SDS011;5754;43.726;7.416;2022-09-25T10:51:22;4.80;;;1.52;;
11396;SDS011;5754;43.726;7.416;2022-09-25T10:54:10;3.72;;;1.23;;
11396;SDS011;5754;43.726;7.416;2022-09-25T10:56:45;5.20;;;1.33;;
11396;SDS011;5754;43.726;7.416;2022-09-25T10:59:21;3.03;;;1.40;;
11396;SDS011;5754;43.726;7.416;2022-09-25T11:01:57;2.45;;;1.40;;
11396;SDS011;5754;43.726;7.416;2022-09-25T11:04:31;3.33;;;1.52;;
11396;SDS011;5754;43.726;7.416;2022-09-25T11:07:13;5.25;;;2.03;;
11396;SDS011;5754;43.726;7.416;2022-09-25T11:09:49;4.30;;;1.75;;
11396;SDS011;5754;43.726;7.416;2022-09-25T11:12:25;4.50;;;1.67;;
11396;SDS011;5754;43.726;7.416;2022-09-25T11:15:03;5.62;;;1.77;;
11396;SDS011;5754;43.726;7.416;2022-09-25T11:17:39;4.50;;;1.45;;
11396;SDS011;5754;43.726;7.416;2022-09-25T11:20:25;4.30;;;1.37;;
11396;SDS011;5754;43.726;7.416;2022-09-25T11:28:26;4.40;;;1.52;;
11396;SDS011;5754;43.726;7.416;2022-09-25T11:31:20;4.97;;;1.62;;
11396;SDS011;5754;43.726;7.416;2022-09-25T11:34:47;3.58;;;1.60;;
11396;SDS011;5754;43.726;7.416;2022-09-25T11:38:13;2.53;;;1.30;;
11396;SDS011;5754;43.726;7.416;2022-09-25T11:41:03;1.50;;;1.23;;
11396;SDS011;5754;43.726;7.416;2022-09-25T11:53:21;4.55;;;1.80;;
11396;SDS011;5754;43.726;7.416;2022-09-25T11:56:05;3.55;;;1.80;;
11396;SDS011;5754;43.726;7.416;2022-09-25T11:58:51;5.43;;;1.95;;
11396;SDS011;5754;43.726;7.416;2022-09-25T12:01:30;5.87;;;1.87;;
11396;SDS011;5754;43.726;7.416;2022-09-25T12:12:58;3.90;;;1.65;;
11396;SDS011;5754;43.726;7.416;2022-09-25T12:15:50;4.32;;;1.65;;
11396;SDS011;5754;43.726;7.416;2022-09-25T12:23:42;5.82;;;1.87;;
11396;SDS011;5754;43.726;7.416;2022-09-25T12:26:23;4.43;;;1.70;;
11396;SDS011;5754;43.726;7.416;2022-09-25T12:29:25;3.60;;;1.20;;
11396;SDS011;5754;43.726;7.416;2022-09-25T12:37:19;2.12;;;1.40;;
11396;SDS011;5754;43.726;7.416;2022-09-25T12:40:01;1.80;;;1.05;;
11396;SDS011;5754;43.726;7.416;2022-09-25T12:42:44;1.52;;;1.10;;
11396;SDS011;5754;43.726;7.416;2022-09-25T12:49:29;3.25;;;1.30;;
11396;SDS011;5754;43.726;7.416;2022-09-25T12:52:15;4.87;;;1.40;;
11396;SDS011;5754;43.726;7.416;2022-09-25T13:00:25;1.00;;;0.90;;
11396;SDS011;5754;43.726;7.416;2022-09-25T13:03:14;7.07;;;1.70;;
11396;SDS011;5754;43.726;7.416;2022-09-25T13:06:00;3.78;;;1.40;;
11396;SDS011;5754;43.726;7.416;2022-09-25T13:12:46;2.85;;;1.20;;
11396;SDS011;5754;43.726;7.416;2022-09-25T13:15:23;2.67;;;1.10;;
11396;SDS011;5754;43.726;7.416;2022-09-25T13:17:59;4.68;;;1.08;;
11396;SDS011;5754;43.726;7.416;2022-09-25T13:20:39;3.70;;;1.40;;
11396;SDS011;5754;43.726;7.416;2022-09-25T13:23:29;1.60;;;1.00;;
11396;SDS011;5754;43.726;7.416;2022-09-25T13:26:12;4.27;;;1.30;;
11396;SDS011;5754;43.726;7.416;2022-09-25T13:28:52;1.53;;;1.30;;
11396;SDS011;5754;43.726;7.416;2022-09-25T13:31:32;2.55;;;1.25;;
11396;SDS011;5754;43.726;7.416;2022-09-25T13:34:14;2.15;;;1.10;;
11396;SDS011;5754;43.726;7.416;2022-09-25T13:36:51;3.80;;;1.10;;
11396;SDS011;5754;43.726;7.416;2022-09-25T13:39:33;3.70;;;1.40;;
11396;SDS011;5754;43.726;7.416;2022-09-25T13:42:28;4.03;;;1.48;;
11396;SDS011;5754;43.726;7.416;2022-09-25T13:48:10;1.55;;;1.40;;
11396;SDS011;5754;43.726;7.416;2022-09-25T13:50:46;1.37;;;1.23;;
11396;SDS011;5754;43.726;7.416;2022-09-25T13:53:24;3.27;;;1.20;;
11396;SDS011;5754;43.726;7.416;2022-09-25T13:56:05;7.57;;;1.65;;
11396;SDS011;5754;43.726;7.416;2022-09-25T13:58:58;4.00;;;1.52;;
11396;SDS011;5754;43.726;7.416;2022-09-25T14:01:36;2.50;;;1.33;;
11396;SDS011;5754;43.726;7.416;2022-09-25T14:04:17;4.27;;;1.20;;
11396;SDS011;5754;43.726;7.416;2022-09-25T14:06:55;3.28;;;1.23;;
11396;SDS011;5754;43.726;7.416;2022-09-25T14:09:41;5.90;;;1.45;;
11396;SDS011;5754;43.726;7.416;2022-09-25T14:12:36;2.80;;;1.30;;
11396;SDS011;5754;43.726;7.416;2022-09-25T14:15:19;3.28;;;1.27;;
11396;SDS011;5754;43.726;7.416;2022-09-25T14:17:58;4.15;;;1.40;;
11396;SDS011;5754;43.726;7.416;2022-09-25T14:20:42;2.83;;;1.30;;
11396;SDS011;5754;43.726;7.416;2022-09-25T14:23:24;2.67;;;1.17;;
11396;SDS011;5754;43.726;7.416;2022-09-25T14:26:03;3.33;;;1.33;;
11396;SDS011;5754;43.726;7.416;2022-09-25T14:28:46;1.35;;;1.12;;
11396;SDS011;5754;43.726;7.416;2022-09-25T14:35:31;3.70;;;1.20;;
11396;SDS011;5754;43.726;7.416;2022-09-25T14:39:12;4.62;;;1.15;;
11396;SDS011;5754;43.726;7.416;2022-09-25T14:47:42;5.20;;;2.47;;
11396;SDS011;5754;43.726;7.416;2022-09-25T14:50:24;3.50;;;1.70;;
11396;SDS011;5754;43.726;7.416;2022-09-25T14:53:00;1.60;;;1.10;;
11396;SDS011;5754;43.726;7.416;2022-09-25T14:55:37;1.50;;;0.90;;
11396;SDS011;5754;43.726;7.416;2022-09-25T14:58:13;1.83;;;1.10;;
11396;SDS011;5754;43.726;7.416;2022-09-25T15:00:51;3.87;;;1.17;;
11396;SDS011;5754;43.726;7.416;2022-09-25T15:03:27;2.27;;;1.17;;
11396;SDS011;5754;43.726;7.416;2022-09-25T15:06:04;2.97;;;1.20;;
11396;SDS011;5754;43.726;7.416;2022-09-25T15:08:39;2.00;;;1.20;;
11396;SDS011;5754;43.726;7.416;2022-09-25T15:11:16;2.53;;;1.30;;
11396;SDS011;5754;43.726;7.416;2022-09-25T15:13:51;1.63;;;1.10;;
11396;SDS011;5754;43.726;7.416;2022-09-25T15:16:27;2.90;;;1.13;;
11396;SDS011;5754;43.726;7.416;2022-09-25T15:19:20;3.00;;;1.20;;
11396;SDS011;5754;43.726;7.416;2022-09-25T15:21:56;4.53;;;1.70;;
11396;SDS011;5754;43.726;7.416;2022-09-25T15:24:33;2.83;;;1.20;;
11396;SDS011;5754;43.726;7.416;2022-09-25T15:27:10;4.27;;;1.07;;
11396;SDS011;5754;43.726;7.416;2022-09-25T15:29:47;3.27;;;1.10;;
11396;SDS011;5754;43.726;7.416;2022-09-25T15:32:24;3.83;;;1.27;;
11396;SDS011;5754;43.726;7.416;2022-09-25T15:35:07;3.03;;;1.60;;
11396;SDS011;5754;43.726;7.416;2022-09-25T15:37:42;5.07;;;1.97;;
11396;SDS011;5754;43.726;7.416;2022-09-25T15:40:24;5.33;;;1.50;;
11396;SDS011;5754;43.726;7.416;2022-09-25T15:43:11;2.97;;;1.17;;
11396;SDS011;5754;43.726;7.416;2022-09-25T15:49:54;3.40;;;1.33;;
11396;SDS011;5754;43.726;7.416;2022-09-25T15:52:29;2.93;;;1.30;;
11396;SDS011;5754;43.726;7.416;2022-09-25T15:55:11;1.80;;;1.23;;
11396;SDS011;5754;43.726;7.416;2022-09-25T15:57:48;7.87;;;1.80;;
11396;SDS011;5754;43.726;7.416;2022-09-25T16:00:23;6.00;;;2.47;;
11396;SDS011;5754;43.726;7.416;2022-09-25T16:03:21;6.00;;;2.50;;
11396;SDS011;5754;43.726;7.416;2022-09-25T16:06:16;7.13;;;2.23;;
11396;SDS011;5754;43.726;7.416;2022-09-25T16:08:51;2.73;;;1.50;;
11396;SDS011;5754;43.726;7.416;2022-09-25T16:11:41;3.17;;;1.50;;
11396;SDS011;5754;43.726;7.416;2022-09-25T16:14:20;4.47;;;1.60;;
11396;SDS011;5754;43.726;7.416;2022-09-25T16:16:55;5.20;;;1.63;;
11396;SDS011;5754;43.726;7.416;2022-09-25T16:19:32;5.67;;;1.60;;
11396;SDS011;5754;43.726;7.416;2022-09-25T16:24:54;4.37;;;1.60;;
11396;SDS011;5754;43.726;7.416;2022-09-25T16:27:30;4.63;;;1.67;;
11396;SDS011;5754;43.726;7.416;2022-09-25T16:30:13;3.27;;;1.90;;
11396;SDS011;5754;43.726;7.416;2022-09-25T16:32:50;3.03;;;1.70;;
11396;SDS011;5754;43.726;7.416;2022-09-25T16:35:29;4.97;;;1.87;;
11396;SDS011;5754;43.726;7.416;2022-09-25T16:38:27;2.87;;;1.70;;
11396;SDS011;5754;43.726;7.416;2022-09-25T16:41:20;3.67;;;2.10;;
11396;SDS011;5754;43.726;7.416;2022-09-25T16:44:09;3.13;;;1.60;;
11396;SDS011;5754;43.726;7.416;2022-09-25T16:47:11;4.20;;;1.90;;
11396;SDS011;5754;43.726;7.416;2022-09-25T16:49:48;4.03;;;1.70;;
11396;SDS011;5754;43.726;7.416;2022-09-25T16:52:30;2.97;;;1.90;;
11396;SDS011;5754;43.726;7.416;2022-09-25T16:55:29;2.40;;;1.57;;
11396;SDS011;5754;43.726;7.416;2022-09-25T16:58:07;2.07;;;1.40;;
11396;SDS011;5754;43.726;7.416;2022-09-25T17:00:43;5.20;;;2.00;;
11396;SDS011;5754;43.726;7.416;2022-09-25T17:03:17;4.20;;;1.70;;
11396;SDS011;5754;43.726;7.416;2022-09-25T17:05:52;3.80;;;1.80;;
11396;SDS011;5754;43.726;7.416;2022-09-25T17:08:27;4.00;;;1.70;;
11396;SDS011;5754;43.726;7.416;2022-09-25T17:11:01;3.57;;;1.67;;
11396;SDS011;5754;43.726;7.416;2022-09-25T17:13:36;5.47;;;1.87;;
11396;SDS011;5754;43.726;7.416;2022-09-25T17:16:10;4.27;;;2.00;;
11396;SDS011;5754;43.726;7.416;2022-09-25T17:18:47;2.40;;;1.93;;
11396;SDS011;5754;43.726;7.416;2022-09-25T17:21:22;3.73;;;2.00;;
11396;SDS011;5754;43.726;7.416;2022-09-25T17:23:56;4.03;;;2.90;;
11396;SDS011;5754;43.726;7.416;2022-09-25T17:26:31;5.13;;;4.60;;
11396;SDS011;5754;43.726;7.416;2022-09-25T17:29:05;4.63;;;2.10;;
11396;SDS011;5754;43.726;7.416;2022-09-25T17:31:40;3.63;;;1.60;;
11396;SDS011;5754;43.726;7.416;2022-09-25T17:34:15;3.97;;;1.83;;
11396;SDS011;5754;43.726;7.416;2022-09-25T17:36:50;3.80;;;1.90;;
11396;SDS011;5754;43.726;7.416;2022-09-25T17:39:24;3.57;;;2.10;;
11396;SDS011;5754;43.726;7.416;2022-09-25T17:41:59;4.10;;;1.90;;
11396;SDS011;5754;43.726;7.416;2022-09-25T17:44:35;4.17;;;2.27;;
11396;SDS011;5754;43.726;7.416;2022-09-25T17:47:09;1.67;;;1.57;;
11396;SDS011;5754;43.726;7.416;2022-09-25T17:49:45;3.67;;;1.90;;
11396;SDS011;5754;43.726;7.416;2022-09-25T17:52:20;2.90;;;1.83;;
11396;SDS011;5754;43.726;7.416;2022-09-25T17:54:56;7.77;;;2.33;;
11396;SDS011;5754;43.726;7.416;2022-09-25T17:57:30;7.43;;;2.60;;
11396;SDS011;5754;43.726;7.416;2022-09-25T18:00:05;6.27;;;2.40;;